Time;durP1;ratioP1;P1;durP2;ratioP2;P2;SDS_P1;SDS_P2;PMS_P1;PMS_P2;Temp;Humidity;BMP_temperature;BMP_pressure;BME280_temperature;BME280_humidity;BME280_pressure;Samples;Min_cycle;Max_cycle;Signal;HPM_P1;HPM_P2
2022/12/11 00:01:34;;;;;;;14.88;6.85;;;;;;;-0.73;100.00;100899.13;6198903;28;20050;-75
2022/12/11 00:04:35;;;;;;;15.57;8.13;;;;;;;-0.75;100.00;100904.28;6198916;28;20054;-75
2022/12/11 00:07:37;;;;;;;19.30;7.80;;;;;;;-0.75;100.00;100896.56;6198909;28;20403;-75
2022/12/11 00:10:38;;;;;;;14.00;7.18;;;;;;;-0.69;100.00;100896.50;6198490;28;20069;-75
2022/12/11 00:13:40;;;;;;;20.48;7.85;;;;;;;-0.67;100.00;100891.38;6198913;28;20050;-75
2022/12/11 00:16:43;;;;;;;13.20;6.47;;;;;;;-0.80;100.00;100890.56;6199104;28;20052;-75
2022/12/11 00:19:44;;;;;;;16.40;8.02;;;;;;;-0.82;100.00;100897.44;6198713;28;20057;-75
2022/12/11 00:22:46;;;;;;;16.77;7.68;;;;;;;-0.83;100.00;100893.16;6198545;28;20061;-75
2022/12/11 00:25:48;;;;;;;13.00;7.15;;;;;;;-0.79;100.00;100903.44;6198347;28;20513;-75
2022/12/11 00:28:54;;;;;;;17.52;6.93;;;;;;;-0.87;100.00;100889.72;6198586;28;20046;-75
2022/12/11 00:31:56;;;;;;;17.48;8.05;;;;;;;-0.82;100.00;100892.28;6198103;28;20417;-75
2022/12/11 00:34:58;;;;;;;12.90;6.50;;;;;;;-0.77;100.00;100891.41;6198346;28;20061;-75
2022/12/11 00:37:59;;;;;;;19.30;7.82;;;;;;;-0.72;100.00;100899.13;6198393;28;20054;-75
2022/12/11 00:41:01;;;;;;;27.58;7.60;;;;;;;-0.78;100.00;100896.56;6198597;28;20046;-75
2022/12/11 00:44:02;;;;;;;14.10;6.55;;;;;;;-0.76;100.00;100900.00;6198054;28;20050;-75
2022/12/11 00:47:05;;;;;;;19.95;7.45;;;;;;;-0.84;100.00;100901.75;6198351;28;20058;-75
2022/12/11 00:50:07;;;;;;;10.45;5.95;;;;;;;-0.79;100.00;100900.00;6197655;28;20046;-75
2022/12/11 00:53:09;;;;;;;16.05;7.05;;;;;;;-0.74;100.00;100903.44;6197861;28;20506;-75
2022/12/11 00:56:13;;;;;;;15.85;7.50;;;;;;;-0.79;100.00;100905.16;6197793;28;20055;-75
2022/12/11 00:59:14;;;;;;;9.95;6.13;;;;;;;-0.82;100.00;100906.06;6198199;28;20042;-75
2022/12/11 01:02:17;;;;;;;17.10;6.97;;;;;;;-0.78;100.00;100904.31;6197823;28;20061;-75
2022/12/11 01:05:18;;;;;;;15.82;7.40;;;;;;;-0.73;100.00;100909.44;6197625;28;20050;-75
2022/12/11 01:08:20;;;;;;;23.95;8.18;;;;;;;-0.74;100.00;100912.91;6198022;28;20046;-75
2022/12/11 01:11:20;;;;;;;14.35;5.80;;;;;;;-0.83;100.00;100904.31;6197362;28;20042;-75
2022/12/11 01:14:22;;;;;;;10.73;6.10;;;;;;;-0.90;100.00;100904.38;6197748;28;20046;-75
2022/12/11 01:17:25;;;;;;;13.02;5.63;;;;;;;-0.86;100.00;100904.34;6197726;28;20062;-75
2022/12/11 01:20:27;;;;;;;13.77;6.85;;;;;;;-0.92;100.00;100908.66;6197487;28;20398;-75
2022/12/11 01:23:28;;;;;;;14.13;5.88;;;;;;;-0.82;100.00;100905.16;6197579;28;20054;-75
2022/12/11 01:26:30;;;;;;;11.50;6.13;;;;;;;-0.79;100.00;100907.75;6197675;28;20050;-75
2022/12/11 01:29:32;;;;;;;20.00;6.90;;;;;;;-0.86;100.00;100901.78;6197529;28;20093;-75
2022/12/11 01:32:35;;;;;;;17.52;7.38;;;;;;;-0.87;100.00;100902.63;6197612;28;20055;-75
2022/12/11 01:35:38;;;;;;;11.25;6.63;;;;;;;-0.83;100.00;100906.03;6197442;28;20498;-75
2022/12/11 01:38:40;;;;;;;15.52;6.40;;;;;;;-0.91;100.00;100905.22;6197476;28;20046;-75
2022/12/11 01:41:41;;;;;;;23.88;6.85;;;;;;;-0.89;100.00;100898.34;6197267;28;20502;-75
2022/12/11 01:45:25;;;;;;;12.88;6.40;;;;;;;-0.90;100.00;100910.38;6197219;28;20054;-75
2022/12/11 01:48:30;;;;;;;14.32;7.32;;;;;;;-0.95;100.00;100906.97;6197465;28;20086;-75
2022/12/11 01:51:35;;;;;;;17.00;7.43;;;;;;;-0.95;100.00;100906.97;6197239;28;20050;-75
2022/12/11 01:54:37;;;;;;;15.82;6.50;;;;;;;-0.99;100.00;100899.25;6197272;28;20054;-75
2022/12/11 01:57:42;;;;;;;13.98;6.70;;;;;;;-0.93;100.00;100909.53;6197395;28;20055;-75
2022/12/11 02:00:43;;;;;;;18.88;8.10;;;;;;;-0.87;100.00;100912.94;6197117;28;20042;-75
2022/12/11 02:03:46;;;;;;;12.90;6.50;;;;;;;-0.86;100.00;100912.09;6200278;28;20054;-75
2022/12/11 02:06:51;;;;;;;13.70;6.68;;;;;;;-0.87;100.00;100910.34;6201851;28;20057;-75
2022/12/11 02:09:53;;;;;;;16.20;7.45;;;;;;;-0.87;100.00;100910.34;6201447;28;20046;-75
2022/12/11 02:13:01;;;;;;;14.23;5.90;;;;;;;-0.97;100.00;100908.69;6201564;28;20046;-75
2022/12/11 02:16:11;;;;;;;14.00;6.20;;;;;;;-0.91;100.00;100898.34;6201391;28;20054;-75
2022/12/11 02:19:25;;;;;;;12.20;7.50;;;;;;;-0.87;100.00;100902.63;6201713;28;20051;-75
2022/12/11 02:22:38;;;;;;;16.98;7.60;;;;;;;-0.88;100.00;100900.91;6201033;28;20069;-75
2022/12/11 02:25:51;;;;;;;15.23;7.65;;;;;;;-0.87;100.00;100899.19;6201381;28;20057;-75
2022/12/11 02:28:57;;;;;;;11.60;6.03;;;;;;;-0.82;100.00;100890.59;6201476;28;20062;-75
2022/12/11 02:32:02;;;;;;;14.73;7.07;;;;;;;-0.85;100.00;100897.47;6200964;28;20046;-75
2022/12/11 02:35:11;;;;;;;15.85;5.78;;;;;;;-0.81;100.00;100889.72;6200953;28;20442;-75
2022/12/11 02:38:17;;;;;;;15.23;6.28;;;;;;;-0.85;100.00;100889.72;6201131;28;20053;-75
2022/12/11 02:41:21;;;;;;;20.63;8.20;;;;;;;-0.83;100.00;100894.00;6200940;28;20057;-75
2022/12/11 02:44:28;;;;;;;16.60;6.85;;;;;;;-0.84;100.00;100894.00;6200904;28;20046;-75
2022/12/11 02:47:32;;;;;;;11.40;5.82;;;;;;;-0.81;100.00;100891.44;6201078;28;20053;-75
2022/12/11 02:50:36;;;;;;;14.25;7.43;;;;;;;-0.78;100.00;100892.25;6200498;28;20518;-75
2022/12/11 02:53:40;;;;;;;13.10;5.63;;;;;;;-0.84;100.00;100887.13;6200479;28;20051;-75
2022/12/11 02:56:45;;;;;;;14.13;7.05;;;;;;;-0.82;100.00;100890.59;6200671;28;20054;-75
2022/12/11 02:59:48;;;;;;;14.95;5.65;;;;;;;-0.87;100.00;100889.72;6200398;28;20517;-75
2022/12/11 03:02:49;;;;;;;18.17;6.88;;;;;;;-0.87;100.00;100883.69;6200461;28;20057;-75
2022/12/11 03:05:51;;;;;;;16.00;6.38;;;;;;;-0.92;100.00;100885.44;6200218;28;20410;-75
2022/12/11 03:08:52;;;;;;;14.27;7.00;;;;;;;-0.90;100.00;100886.31;6200489;28;20050;-75
2022/12/11 03:11:54;;;;;;;11.93;6.15;;;;;;;-0.87;100.00;100883.69;6199975;28;20490;-75
2022/12/11 03:14:59;;;;;;;10.82;6.90;;;;;;;-0.85;100.00;100882.84;6199536;28;20058;-75
2022/12/11 03:18:09;;;;;;;11.88;5.03;;;;;;;-0.87;100.00;100875.97;6200148;28;20057;-75
2022/12/11 03:21:17;;;;;;;14.70;7.63;;;;;;;-0.86;100.00;100875.97;6199971;28;20047;-75
2022/12/11 03:24:22;;;;;;;12.88;6.57;;;;;;;-0.89;100.00;100877.72;6199147;28;20055;-75
2022/12/11 03:27:30;;;;;;;13.15;6.90;;;;;;;-0.91;100.00;100888.03;6199885;28;20054;-75
2022/12/11 03:30:36;;;;;;;12.80;6.35;;;;;;;-0.90;100.00;100878.56;6199675;28;20089;-75
2022/12/11 03:33:41;;;;;;;16.75;7.20;;;;;;;-0.84;100.00;100878.53;6199766;28;20050;-75
2022/12/11 03:36:45;;;;;;;15.57;6.38;;;;;;;-0.87;100.00;100878.53;6199538;28;20065;-75
2022/12/11 03:39:50;;;;;;;15.18;7.10;;;;;;;-0.89;100.00;100878.56;6199609;28;20051;-75
2022/12/11 03:42:56;;;;;;;11.65;5.93;;;;;;;-0.87;100.00;100870.81;6199371;28;20053;-75
2022/12/11 03:46:00;;;;;;;22.38;6.85;;;;;;;-0.82;100.00;100872.53;6199511;28;20056;-75
2022/12/11 03:49:05;;;;;;;12.77;5.95;;;;;;;-0.83;100.00;100872.50;6199309;28;20057;-75
2022/12/11 03:52:09;;;;;;;13.35;7.47;;;;;;;-0.87;100.00;100875.97;6199146;28;20057;-75
2022/12/11 03:55:13;;;;;;;12.35;5.85;;;;;;;-0.89;100.00;100873.41;6199063;28;20057;-75
2022/12/11 03:58:15;;;;;;;13.88;5.90;;;;;;;-0.92;100.00;100875.97;6199308;28;20058;-75
2022/12/11 04:01:18;;;;;;;10.82;5.88;;;;;;;-0.96;100.00;100870.84;6198909;28;20046;-75
2022/12/11 04:04:19;;;;;;;16.08;7.25;;;;;;;-0.94;100.00;100867.41;6198840;28;20426;-75
2022/12/11 04:07:21;;;;;;;15.38;6.80;;;;;;;-0.97;100.00;100861.41;6198943;28;20056;-75
2022/12/11 04:10:22;;;;;;;11.27;5.28;;;;;;;-1.03;100.00;100865.72;6198684;28;20410;-75
2022/12/11 04:13:24;;;;;;;10.82;5.72;;;;;;;-1.00;100.00;100866.56;6198807;28;20052;-75
2022/12/11 04:16:26;;;;;;;13.75;6.25;;;;;;;-1.05;100.00;100872.59;6198647;28;20441;-75
2022/12/11 04:26:06;;;;;;;13.60;6.03;;;;;;;-0.91;100.00;100874.25;6198386;28;20058;-75
2022/12/11 04:29:08;;;;;;;13.10;6.20;;;;;;;-0.97;100.00;100866.56;6198927;28;20056;-75
2022/12/11 04:32:11;;;;;;;15.32;6.18;;;;;;;-0.99;100.00;100873.47;6198269;28;20042;-75
2022/12/11 04:35:13;;;;;;;15.73;6.28;;;;;;;-1.05;100.00;100872.59;6198253;28;20050;-75
2022/12/11 04:38:14;;;;;;;16.05;6.72;;;;;;;-1.01;100.00;100876.03;6198370;28;20057;-75
2022/12/11 04:41:17;;;;;;;11.50;5.28;;;;;;;-0.96;100.00;100881.16;6197943;28;20054;-75
2022/12/11 04:44:18;;;;;;;10.02;4.95;;;;;;;-1.02;100.00;100880.31;6198262;28;20070;-75
2022/12/11 04:47:21;;;;;;;12.85;6.28;;;;;;;-0.98;100.00;100888.06;6198075;28;20054;-75
2022/12/11 04:50:22;;;;;;;15.85;6.20;;;;;;;-0.93;100.00;100891.47;6198117;28;20051;-75
2022/12/11 04:53:24;;;;;;;16.27;8.15;;;;;;;-0.97;100.00;100885.47;6197854;28;20050;-75
2022/12/11 04:56:25;;;;;;;16.00;6.53;;;;;;;-0.96;100.00;100881.16;6198081;28;20518;-75
2022/12/11 04:59:27;;;;;;;11.50;6.18;;;;;;;-0.96;100.00;100883.75;6197928;28;20051;-75
2022/12/11 05:02:30;;;;;;;16.88;6.55;;;;;;;-1.02;100.00;100874.31;6197883;28;20053;-75
2022/12/11 05:05:32;;;;;;;12.93;6.18;;;;;;;-1.02;100.00;100872.59;6197877;28;20058;-75
2022/12/11 05:08:35;;;;;;;15.15;5.57;;;;;;;-1.08;100.00;100874.34;6197940;28;20061;-75
2022/12/11 05:11:36;;;;;;;17.60;8.70;;;;;;;-1.01;100.00;100876.03;6197636;28;20046;-75
2022/12/11 05:14:38;;;;;;;21.58;6.88;;;;;;;-0.97;100.00;100866.56;6197569;28;20050;-75
2022/12/11 05:17:41;;;;;;;12.27;5.00;;;;;;;-0.98;100.00;100868.28;6197649;28;20429;-75
2022/12/11 05:20:42;;;;;;;15.40;6.78;;;;;;;-0.98;100.00;100867.44;6197703;28;20058;-75
2022/12/11 05:23:43;;;;;;;11.43;5.82;;;;;;;-0.95;100.00;100864.81;6197299;28;20509;-75
2022/12/11 05:26:45;;;;;;;13.07;6.07;;;;;;;-0.93;100.00;100868.25;6197681;28;20513;-75
2022/12/11 05:29:46;;;;;;;11.85;6.28;;;;;;;-0.88;100.00;100867.38;6197700;28;20084;-75
2022/12/11 05:32:49;;;;;;;15.23;6.88;;;;;;;-0.91;100.00;100867.41;6197417;28;20046;-75
2022/12/11 05:35:51;;;;;;;11.02;5.53;;;;;;;-0.90;100.00;100853.63;6197382;28;20418;-75
2022/12/11 05:38:53;;;;;;;16.40;6.03;;;;;;;-0.92;100.00;100855.34;6201155;28;20050;-75
2022/12/11 05:41:54;;;;;;;17.83;6.32;;;;;;;-0.92;100.00;100862.22;6202422;28;20051;-75
2022/12/11 05:44:56;;;;;;;14.05;6.03;;;;;;;-0.90;100.00;100863.09;6202194;28;20046;-75
2022/12/11 05:47:58;;;;;;;11.82;5.90;;;;;;;-0.94;100.00;100862.25;6202120;28;20051;-75
2022/12/11 05:51:01;;;;;;;17.70;7.18;;;;;;;-0.90;100.00;100858.78;6201919;28;20417;-75
2022/12/11 05:54:02;;;;;;;15.05;7.18;;;;;;;-0.92;100.00;100851.91;6201829;28;20057;-75
2022/12/11 05:57:04;;;;;;;18.60;6.10;;;;;;;-1.03;100.00;100852.81;6202357;28;20046;-75
2022/12/11 06:00:07;;;;;;;20.35;7.40;;;;;;;-1.00;100.00;100864.84;6202061;28;20054;-76
2022/12/11 06:03:10;;;;;;;14.73;6.45;;;;;;;-0.95;100.00;100860.53;6202289;28;20043;-75
2022/12/11 06:06:12;;;;;;;11.10;5.47;;;;;;;-0.91;100.00;100861.38;6201674;28;20422;-75
2022/12/11 06:09:15;;;;;;;10.70;5.32;;;;;;;-0.93;100.00;100861.38;6201878;28;20054;-75
2022/12/11 06:12:17;;;;;;;14.32;6.25;;;;;;;-0.96;100.00;100863.09;6201515;28;20046;-75
2022/12/11 06:15:18;;;;;;;19.90;6.93;;;;;;;-1.01;100.00;100868.28;6201675;28;20055;-75
2022/12/11 06:18:21;;;;;;;15.77;6.40;;;;;;;-1.00;100.00;100857.09;6201539;28;20050;-75
2022/12/11 06:21:25;;;;;;;17.70;5.72;;;;;;;-1.09;100.00;100858.03;6201051;28;20053;-75
2022/12/11 06:24:26;;;;;;;12.73;5.93;;;;;;;-1.06;100.00;100855.41;6201196;28;20537;-75
2022/12/11 06:27:28;;;;;;;20.20;7.60;;;;;;;-0.98;100.00;100860.53;6201393;28;20061;-75
2022/12/11 06:30:29;;;;;;;12.98;6.47;;;;;;;-0.95;100.00;100860.53;6201174;28;20060;-75
2022/12/11 06:33:32;;;;;;;9.10;5.35;;;;;;;-0.92;100.00;100869.97;6201009;28;20054;-75
2022/12/11 06:36:34;;;;;;;18.27;6.80;;;;;;;-0.89;100.00;100867.38;6201335;28;20056;-75
2022/12/11 06:39:35;;;;;;;14.48;5.63;;;;;;;-0.89;100.00;100870.81;6200955;28;20050;-75
2022/12/11 06:42:36;;;;;;;18.33;6.25;;;;;;;-0.92;100.00;100869.97;6201181;28;20054;-75
2022/12/11 06:45:38;;;;;;;17.00;6.15;;;;;;;-0.89;100.00;100864.81;6200856;28;20060;-76
2022/12/11 06:48:42;;;;;;;18.23;6.60;;;;;;;-0.93;100.00;100863.09;6199890;28;20050;-75
2022/12/11 06:51:43;;;;;;;16.05;6.57;;;;;;;-0.96;100.00;100855.38;6200509;28;20046;-75
2022/12/11 06:54:44;;;;;;;15.07;6.88;;;;;;;-0.93;100.00;100856.22;6200669;28;20520;-75
2022/12/11 06:57:46;;;;;;;14.95;5.43;;;;;;;-0.94;100.00;100863.97;6200684;28;20430;-75
2022/12/11 07:00:47;;;;;;;13.80;6.63;;;;;;;-0.95;100.00;100857.06;6200302;28;20521;-75
2022/12/11 07:03:53;;;;;;;12.35;5.20;;;;;;;-0.93;100.00;100865.69;6200455;28;20065;-75
2022/12/11 07:06:54;;;;;;;16.30;6.60;;;;;;;-0.90;100.00;100868.25;6200485;28;20169;-75
2022/12/11 07:09:56;;;;;;;11.90;6.20;;;;;;;-0.90;100.00;100868.25;6200313;28;20140;-75
2022/12/11 07:12:57;;;;;;;11.93;6.60;;;;;;;-0.93;100.00;100865.69;6200219;28;20057;-75
2022/12/11 07:16:00;;;;;;;15.15;5.40;;;;;;;-1.02;100.00;100867.44;6200244;28;20513;-75
2022/12/11 07:19:03;;;;;;;8.90;4.70;;;;;;;-1.03;100.00;100864.88;6200077;28;20053;-75
2022/12/11 07:22:05;;;;;;;9.93;4.38;;;;;;;-1.04;100.00;100864.00;6199913;28;20050;-75
2022/12/11 07:25:06;;;;;;;13.50;5.93;;;;;;;-0.98;100.00;100870.84;6199882;28;20046;-75
2022/12/11 07:28:08;;;;;;;12.43;4.88;;;;;;;-1.00;100.00;100869.13;6200146;28;20050;-75
2022/12/11 07:31:11;;;;;;;15.75;5.50;;;;;;;-1.02;100.00;100864.84;6199724;28;20062;-75
2022/12/11 07:34:14;;;;;;;14.10;5.15;;;;;;;-0.97;100.00;100866.56;6199545;28;20132;-75
2022/12/11 07:37:16;;;;;;;6.38;4.07;;;;;;;-0.97;100.00;100869.13;6199752;28;20517;-76
2022/12/11 07:40:17;;;;;;;13.57;5.82;;;;;;;-0.99;100.00;100876.88;6199478;28;20058;-75
2022/12/11 07:43:19;;;;;;;13.27;5.28;;;;;;;-1.01;100.00;100873.44;6199529;28;20414;-75
2022/12/11 07:46:23;;;;;;;12.63;5.57;;;;;;;-1.17;100.00;100870.06;6199848;28;20637;-75
2022/12/11 07:49:26;;;;;;;20.95;5.85;;;;;;;-1.15;100.00;100870.06;6199616;28;20054;-75
2022/12/11 07:52:28;;;;;;;13.25;5.45;;;;;;;-1.17;100.00;100880.38;6199137;28;20054;-75
2022/12/11 07:55:29;;;;;;;9.98;4.78;;;;;;;-1.18;100.00;100877.78;6199382;28;20141;-75
2022/12/11 07:58:30;;;;;;;10.85;4.20;;;;;;;-1.15;100.00;100876.06;6199267;28;20073;-75
2022/12/11 08:01:35;;;;;;;17.88;6.65;;;;;;;-1.12;100.00;100878.66;6199253;28;20050;-75
2022/12/11 08:04:38;;;;;;;15.07;4.55;;;;;;;-1.11;100.00;100880.34;6198972;28;20138;-75
2022/12/11 08:07:39;;;;;;;8.57;5.60;;;;;;;-1.11;100.00;100882.94;6198949;28;20081;-75
2022/12/11 08:10:41;;;;;;;11.65;5.65;;;;;;;-1.08;100.00;100875.19;6198788;28;20068;-75
2022/12/11 08:13:43;;;;;;;12.55;4.88;;;;;;;-1.09;100.00;100876.06;6198668;28;20054;-75
2022/12/11 08:16:44;;;;;;;10.82;5.78;;;;;;;-1.05;100.00;100876.91;6198977;28;20054;-75
2022/12/11 08:19:47;;;;;;;13.23;6.47;;;;;;;-1.06;100.00;100880.34;6198552;28;20046;-75
2022/12/11 08:22:48;;;;;;;13.52;6.60;;;;;;;-1.05;100.00;100871.72;6198473;28;20498;-75
2022/12/11 08:25:50;;;;;;;12.10;5.47;;;;;;;-1.01;100.00;100870.88;6198389;28;20058;-75
2022/12/11 08:28:52;;;;;;;15.05;6.55;;;;;;;-1.06;100.00;100870.88;6198632;28;20115;-75
2022/12/11 08:31:53;;;;;;;14.40;5.07;;;;;;;-1.10;100.00;100873.47;6198140;28;20075;-75
2022/12/11 08:34:56;;;;;;;11.77;5.78;;;;;;;-1.13;100.00;100873.50;6198389;28;20105;-75
2022/12/11 08:37:57;;;;;;;13.95;6.03;;;;;;;-1.14;100.00;100872.63;6198430;28;20054;-75
2022/12/11 08:40:59;;;;;;;12.05;5.78;;;;;;;-1.12;100.00;100878.66;6198068;28;20053;-75
2022/12/11 08:44:00;;;;;;;11.05;5.72;;;;;;;-1.10;100.00;100879.50;6198270;28;20054;-75
2022/12/11 08:47:02;;;;;;;17.58;6.72;;;;;;;-1.05;100.00;100882.06;6198202;28;20054;-75
2022/12/11 08:50:06;;;;;;;13.35;6.15;;;;;;;-1.08;100.00;100876.94;6197996;28;20054;-74
2022/12/11 08:53:07;;;;;;;12.85;5.25;;;;;;;-1.10;100.00;100889.81;6197938;28;20062;-74
2022/12/11 08:56:11;;;;;;;12.07;5.95;;;;;;;-1.00;100.00;100894.94;6198030;28;20069;-74
2022/12/11 08:59:12;;;;;;;16.80;7.07;;;;;;;-1.05;100.00;100876.91;6198084;28;20060;-74
2022/12/11 09:02:14;;;;;;;21.45;7.60;;;;;;;-1.07;100.00;100896.69;6197650;28;20414;-74
2022/12/11 09:05:17;;;;;;;12.90;7.05;;;;;;;-1.15;100.00;100893.25;6197650;28;20050;-74
2022/12/11 09:08:18;;;;;;;11.10;4.82;;;;;;;-1.09;100.00;100886.38;6198110;28;20054;-74
2022/12/11 09:11:22;;;;;;;11.52;6.15;;;;;;;-1.04;100.00;100886.38;6197148;28;20047;-74
2022/12/11 09:14:24;;;;;;;13.40;5.50;;;;;;;-1.09;100.00;100882.91;6197403;28;20057;-74
2022/12/11 09:17:25;;;;;;;14.38;6.93;;;;;;;-0.99;100.00;100891.50;6197859;28;20051;-76
2022/12/11 09:20:28;;;;;;;13.82;5.88;;;;;;;-0.94;100.00;100888.03;6197497;28;20506;-75
2022/12/11 09:23:30;;;;;;;12.93;5.90;;;;;;;-0.95;100.00;100882.88;6197698;28;20050;-73
2022/12/11 09:26:31;;;;;;;15.13;7.15;;;;;;;-0.89;100.00;100880.28;6197467;28;20170;-73
2022/12/11 09:29:33;;;;;;;20.63;6.70;;;;;;;-0.86;100.00;100878.56;6197810;28;20050;-73
2022/12/11 09:32:34;;;;;;;14.38;6.70;;;;;;;-0.85;100.00;100888.00;6197232;28;20061;-75
2022/12/11 09:35:37;;;;;;;16.45;6.72;;;;;;;-0.89;100.00;100882.88;6197306;28;20525;-73
2022/12/11 09:38:39;;;;;;;18.67;6.53;;;;;;;-0.90;100.00;100879.44;6197488;28;20567;-73
2022/12/11 09:41:47;;;;;;;11.27;5.28;;;;;;;-0.85;100.00;100871.66;6197463;28;20054;-73
2022/12/11 09:44:52;;;;;;;17.98;6.68;;;;;;;-0.82;100.00;100871.63;6197437;28;20055;-73
2022/12/11 09:47:56;;;;;;;21.70;7.90;;;;;;;-0.88;100.00;100872.53;6197543;28;20528;-73
2022/12/11 09:51:06;;;;;;;14.23;6.97;;;;;;;-0.93;100.00;100869.13;6197191;28;20052;-73
2022/12/11 09:54:11;;;;;;;13.25;7.15;;;;;;;-0.87;100.00;100871.66;6197419;28;20058;-73
2022/12/11 09:57:26;;;;;;;17.23;6.75;;;;;;;-0.85;100.00;100875.09;6197240;28;20156;-73
2022/12/11 10:00:33;;;;;;;16.80;7.90;;;;;;;-0.86;100.00;100875.97;6197135;28;20054;-73
2022/12/11 10:04:06;;;;;;;12.65;6.93;;;;;;;-0.85;100.00;100872.53;6197095;28;20502;-73
2022/12/11 10:07:14;;;;;;;13.77;5.80;;;;;;;-0.79;100.00;100869.06;6194110;28;20529;-73
2022/12/11 10:10:28;;;;;;;22.77;7.97;;;;;;;-0.92;100.00;100865.66;6197085;28;20046;-73
2022/12/11 10:13:40;;;;;;;24.60;8.32;;;;;;;-0.86;100.00;100865.66;6197247;28;20059;-73
2022/12/11 10:16:44;;;;;;;18.00;7.93;;;;;;;-0.86;100.00;100864.81;6197002;28;20093;-73
2022/12/11 10:19:47;;;;;;;14.85;6.70;;;;;;;-0.94;100.00;100861.41;6197138;28;20061;-73
2022/12/11 10:22:51;;;;;;;15.70;6.97;;;;;;;-0.92;100.00;100857.94;6197068;28;20053;-73
2022/12/11 10:25:58;;;;;;;16.38;8.35;;;;;;;-0.81;100.00;100848.44;6201278;28;20047;-73
2022/12/11 10:29:00;;;;;;;15.07;7.32;;;;;;;-0.79;100.00;100846.69;6201419;28;20311;-73
2022/12/11 10:32:05;;;;;;;13.13;7.07;;;;;;;-0.75;100.00;100842.38;6201019;28;20054;-73
2022/12/11 10:35:07;;;;;;;19.58;8.45;;;;;;;-0.70;100.00;100837.19;6201077;28;20061;-73
2022/12/11 10:38:17;;;;;;;17.17;7.68;;;;;;;-0.73;100.00;100839.78;6201233;28;20054;-73
2022/12/11 10:41:23;;;;;;;13.82;6.88;;;;;;;-0.72;100.00;100834.63;6200759;28;20050;-73
2022/12/11 10:44:27;;;;;;;15.30;7.60;;;;;;;-0.65;100.00;100835.44;6201060;28;20057;-73
2022/12/11 10:47:29;;;;;;;23.67;8.30;;;;;;;-0.66;100.00;100839.75;6200988;28;20058;-73
2022/12/11 10:50:30;;;;;;;16.77;7.05;;;;;;;-0.73;100.00;100835.47;6200941;28;20580;-73
2022/12/11 10:53:34;;;;;;;18.85;6.53;;;;;;;-0.69;100.00;100834.59;6200681;28;20043;-73
2022/12/11 10:56:37;;;;;;;16.23;7.75;;;;;;;-0.68;100.00;100835.44;6200521;28;20399;-74
2022/12/11 10:59:44;;;;;;;17.90;7.40;;;;;;;-0.66;100.00;100841.47;6200590;28;20437;-73
2022/12/11 11:02:45;;;;;;;15.43;7.25;;;;;;;-0.71;100.00;100838.06;6200331;28;20057;-73
2022/12/11 11:05:49;;;;;;;19.52;8.70;;;;;;;-0.66;100.00;100831.16;6200479;28;20050;-73
2022/12/11 11:08:53;;;;;;;14.55;7.38;;;;;;;-0.74;100.00;100835.50;6200303;28;20112;-73
2022/12/11 11:11:55;;;;;;;14.48;6.38;;;;;;;-0.66;100.00;100828.56;6199996;28;20521;-73
2022/12/11 11:15:01;;;;;;;23.60;9.18;;;;;;;-0.67;100.00;100830.28;6200137;28;20053;-73
2022/12/11 11:18:11;;;;;;;13.98;6.30;;;;;;;-0.62;100.00;100833.69;6200233;28;20054;-73
2022/12/11 11:21:16;;;;;;;25.73;8.10;;;;;;;-0.61;100.00;100831.97;6199642;28;20058;-73
2022/12/11 11:24:27;;;;;;;20.98;7.78;;;;;;;-0.65;100.00;100823.38;6199901;28;20422;-74
2022/12/11 11:27:34;;;;;;;17.23;7.75;;;;;;;-0.63;100.00;100818.22;6199877;28;20473;-73
2022/12/11 11:30:38;;;;;;;15.90;7.35;;;;;;;-0.65;100.00;100818.22;6199809;28;20433;-73
2022/12/11 11:33:53;;;;;;;14.30;7.60;;;;;;;-0.61;100.00;100819.06;6199557;28;20042;-73
2022/12/11 11:36:57;;;;;;;24.13;8.57;;;;;;;-0.58;100.00;100813.91;6199255;28;20054;-73
2022/12/11 11:40:08;;;;;;;12.45;7.03;;;;;;;-0.53;100.00;100825.03;6199493;28;20054;-73
2022/12/11 11:43:17;;;;;;;18.80;8.52;;;;;;;-0.64;100.00;100817.34;6200052;28;20140;-73
2022/12/11 11:46:23;;;;;;;17.70;8.98;;;;;;;-0.63;100.00;100805.34;6199394;28;20061;-73
2022/12/11 11:49:40;;;;;;;16.23;8.80;;;;;;;-0.58;100.00;100807.00;6199540;28;20085;-73
2022/12/11 11:52:46;;;;;;;19.25;8.45;;;;;;;-0.55;100.00;100799.22;6199095;28;20053;-73
2022/12/11 11:55:58;;;;;;;15.45;8.15;;;;;;;-0.56;100.00;100806.97;6199475;28;20141;-75
2022/12/11 11:59:07;;;;;;;18.13;7.65;;;;;;;-0.53;100.00;100807.81;6199860;28;20064;-73
2022/12/11 12:02:15;;;;;;;17.25;8.55;;;;;;;-0.52;100.00;100804.38;6199146;28;20050;-73
2022/12/11 12:05:25;;;;;;;18.67;7.72;;;;;;;-0.47;100.00;100808.66;6199227;28;20184;-73
2022/12/11 12:08:41;;;;;;;16.95;7.55;;;;;;;-0.51;100.00;100807.81;6199080;28;20054;-73
2022/12/11 12:11:53;;;;;;;28.40;9.88;;;;;;;-0.48;100.00;100814.69;6198803;28;20058;-73
2022/12/11 12:15:20;;;;;;;21.50;8.32;;;;;;;-0.48;100.00;100822.44;6198798;28;20050;-73
2022/12/11 12:18:33;;;;;;;22.77;7.70;;;;;;;-0.46;100.00;100811.22;6198896;28;20140;-73
2022/12/11 12:21:37;;;;;;;16.88;7.43;;;;;;;-0.45;100.00;100819.84;6198466;28;20054;-73
2022/12/11 12:24:48;;;;;;;20.95;7.97;;;;;;;-0.46;100.00;100813.78;6198678;28;20050;-73
2022/12/11 12:27:58;;;;;;;20.25;7.85;;;;;;;-0.41;100.00;100816.34;6198582;28;20150;-73
2022/12/11 12:31:13;;;;;;;20.58;9.57;;;;;;;-0.48;100.00;100817.25;6198568;28;20058;-73
2022/12/11 12:34:22;;;;;;;20.70;9.45;;;;;;;-0.53;100.00;100815.56;6198117;28;20042;-73
2022/12/11 12:37:36;;;;;;;18.63;8.43;;;;;;;-0.46;100.00;100815.50;6198433;28;20050;-73
2022/12/11 12:40:47;;;;;;;17.00;8.32;;;;;;;-0.41;100.00;100818.91;6198504;28;20050;-73
2022/12/11 12:44:12;;;;;;;20.25;8.98;;;;;;;-0.38;100.00;100813.75;6197923;28;20498;-73
2022/12/11 12:47:17;;;;;;;18.70;8.40;;;;;;;-0.41;100.00;100804.31;6197521;28;20050;-75
2022/12/11 12:50:21;;;;;;;18.13;9.38;;;;;;;-0.46;100.00;100805.19;6198056;28;20622;-73
2022/12/11 12:53:25;;;;;;;16.75;8.15;;;;;;;-0.46;100.00;100797.44;6198096;28;20042;-73
2022/12/11 12:56:29;;;;;;;17.00;6.80;;;;;;;-0.49;100.00;100789.75;6197759;28;20061;-73
2022/12/11 12:59:32;;;;;;;22.08;8.85;;;;;;;-0.49;100.00;100793.19;6198007;28;20053;-73
2022/12/11 13:02:33;;;;;;;19.05;8.50;;;;;;;-0.46;100.00;100789.69;6197719;28;20049;-75
2022/12/11 13:05:35;;;;;;;25.52;8.35;;;;;;;-0.43;100.00;100798.28;6197686;28;20054;-73
2022/12/11 13:08:43;;;;;;;21.52;9.05;;;;;;;-0.41;100.00;100798.25;6197701;28;20457;-73
2022/12/11 13:11:46;;;;;;;19.77;8.32;;;;;;;-0.49;100.00;100789.75;6197537;28;20050;-73
2022/12/11 13:14:56;;;;;;;23.80;10.52;;;;;;;-0.49;100.00;100790.59;6197615;28;20051;-73
2022/12/11 13:17:59;;;;;;;20.42;8.52;;;;;;;-0.60;100.00;100780.34;6197805;28;20061;-73
2022/12/11 13:21:01;;;;;;;17.10;8.48;;;;;;;-0.51;100.00;100774.25;6197773;28;20050;-73
2022/12/11 13:24:23;;;;;;;17.70;7.95;;;;;;;-0.47;100.00;100778.53;6197462;28;20066;-73
2022/12/11 13:27:35;;;;;;;22.75;8.50;;;;;;;-0.41;100.00;100783.66;6197555;28;20516;-73
2022/12/11 13:30:39;;;;;;;20.25;9.25;;;;;;;-0.43;100.00;100785.38;6198063;28;20054;-73
2022/12/11 13:33:44;;;;;;;30.15;10.90;;;;;;;-0.40;100.00;100787.09;6197450;28;20058;-73
2022/12/11 13:36:49;;;;;;;21.30;8.60;;;;;;;-0.38;100.00;100786.19;6197507;28;20065;-73
2022/12/11 13:39:51;;;;;;;22.00;8.43;;;;;;;-0.53;100.00;100792.34;6197320;28;20421;-73
2022/12/11 13:42:55;;;;;;;16.70;9.05;;;;;;;-0.48;100.00;100788.88;6197336;28;20506;-73
2022/12/11 13:46:01;;;;;;;21.95;9.23;;;;;;;-0.45;100.00;100787.13;6197551;28;20052;-73
2022/12/11 13:49:05;;;;;;;22.10;11.23;;;;;;;-0.45;100.00;100792.28;6197310;28;20411;-73
2022/12/11 13:52:07;;;;;;;23.35;8.93;;;;;;;-0.43;100.00;100795.72;6197052;28;20490;-73
2022/12/11 13:55:21;;;;;;;18.95;9.80;;;;;;;-0.37;100.00;100802.53;6197155;28;20490;-73
2022/12/11 13:58:23;;;;;;;27.05;9.63;;;;;;;-0.46;100.00;100792.28;6198574;28;20050;-73
2022/12/11 14:01:29;;;;;;;20.83;10.32;;;;;;;-0.43;100.00;100794.84;6201860;28;20050;-73
2022/12/11 14:04:33;;;;;;;21.77;8.93;;;;;;;-0.34;100.00;100803.38;6201839;28;20054;-73